createdAt,value
2023-05-07T00:01:35.355Z,2.53
2023-05-07T00:03:37.607Z,2.75
2023-05-07T00:05:40.232Z,2.90
2023-05-07T00:07:41.729Z,2.50
2023-05-07T00:09:43.264Z,3.08
2023-05-07T00:11:45.137Z,4.05
2023-05-07T00:13:46.851Z,4.47
2023-05-07T00:15:48.408Z,3.85
2023-05-07T00:17:50.099Z,3.13
2023-05-07T00:19:51.750Z,4.40
2023-05-07T00:21:54.902Z,3.58
2023-05-07T00:23:56.409Z,3.22
2023-05-07T00:25:57.999Z,3.97
2023-05-07T00:28:04.506Z,2.78
2023-05-07T00:30:07.208Z,2.60
2023-05-07T00:32:10.088Z,3.55
2023-05-07T00:34:11.616Z,2.60
2023-05-07T00:36:13.270Z,3.60
2023-05-07T00:38:15.018Z,2.55
2023-05-07T00:40:16.636Z,2.95
2023-05-07T00:42:18.049Z,2.95
2023-05-07T00:44:19.900Z,4.30
2023-05-07T00:46:22.163Z,2.92
2023-05-07T00:48:25.370Z,2.85
2023-05-07T00:50:30.758Z,3.10
2023-05-07T00:52:32.381Z,2.63
2023-05-07T00:54:34.919Z,2.97
2023-05-07T00:56:37.220Z,3.35
2023-05-07T00:58:39.067Z,3.20
2023-05-07T01:00:40.610Z,2.72
2023-05-07T01:02:43.276Z,3.17
2023-05-07T01:04:45.362Z,3.60
2023-05-07T01:06:47.418Z,3.30
2023-05-07T01:08:51.591Z,4.65
2023-05-07T01:10:53.970Z,3.45
2023-05-07T01:12:58.372Z,3.65
2023-05-07T01:14:59.979Z,3.38
2023-05-07T01:17:01.958Z,2.60
2023-05-07T01:19:04.316Z,4.05
2023-05-07T01:21:09.138Z,2.90
2023-05-07T01:23:12.104Z,3.55
2023-05-07T01:25:14.657Z,2.90
2023-05-07T01:27:20.807Z,3.22
2023-05-07T01:29:25.258Z,2.28
2023-05-07T01:31:27.288Z,2.50
2023-05-07T01:33:32.791Z,2.45
2023-05-07T01:35:41.672Z,2.55
2023-05-07T01:37:43.193Z,2.72
2023-05-07T01:39:45.518Z,5.65
2023-05-07T01:41:50.254Z,3.38
2023-05-07T01:43:53.218Z,3.15
2023-05-07T01:45:55.388Z,3.25
2023-05-07T01:47:58.737Z,2.70
2023-05-07T01:50:00.646Z,3.63
2023-05-07T01:52:02.897Z,3.17
2023-05-07T01:54:04.414Z,2.38
2023-05-07T01:56:09.394Z,3.45
2023-05-07T01:58:13.459Z,3.67
2023-05-07T02:00:18.559Z,2.70
2023-05-07T02:02:20.470Z,2.38
2023-05-07T02:04:22.632Z,2.85
2023-05-07T02:06:25.935Z,3.53
2023-05-07T02:08:32.061Z,3.15
2023-05-07T02:10:33.974Z,2.90
2023-05-07T02:12:35.844Z,2.70
2023-05-07T02:14:37.388Z,2.58
2023-05-07T02:16:39.068Z,3.08
2023-05-07T02:18:41.213Z,3.20
2023-05-07T02:20:42.762Z,2.53
2023-05-07T02:22:44.228Z,3.38
2023-05-07T02:24:45.910Z,3.30
2023-05-07T02:26:47.490Z,2.50
2023-05-07T02:28:49.156Z,2.15
2023-05-07T02:30:50.666Z,2.88
2023-05-07T02:32:52.922Z,2.28
2023-05-07T02:34:54.738Z,2.15
2023-05-07T02:36:56.675Z,2.30
2023-05-07T02:39:01.311Z,3.80
2023-05-07T02:41:03.444Z,2.85
2023-05-07T02:43:05.240Z,3.63
2023-05-07T02:45:08.716Z,3.45
2023-05-07T02:47:11.425Z,4.15
2023-05-07T02:49:13.440Z,2.92
2023-05-07T02:51:15.254Z,3.50
2023-05-07T02:53:17.894Z,2.42
2023-05-07T02:55:19.486Z,2.28
2023-05-07T02:57:23.965Z,2.20
2023-05-07T02:59:27.145Z,2.15
2023-05-07T03:01:28.989Z,2.75
2023-05-07T03:03:36.876Z,2.58
2023-05-07T03:06:05.538Z,3.45
2023-05-07T03:08:07.838Z,2.42
2023-05-07T03:10:09.626Z,2.63
2023-05-07T03:12:11.375Z,2.92
2023-05-07T03:14:13.084Z,2.95
2023-05-07T03:16:14.719Z,2.80
2023-05-07T03:18:16.405Z,3.90
2023-05-07T03:20:18.172Z,2.92
2023-05-07T03:22:19.764Z,2.47
2023-05-07T03:24:21.739Z,2.75
2023-05-07T03:26:26.222Z,3.35
2023-05-07T03:28:27.712Z,3.42
2023-05-07T03:30:34.234Z,2.95
2023-05-07T03:32:36.832Z,2.35
2023-05-07T03:34:42.308Z,2.85
2023-05-07T03:36:50.357Z,2.55
2023-05-07T03:38:54.547Z,2.75
2023-05-07T03:41:02.072Z,2.38
2023-05-07T03:43:04.256Z,3.63
2023-05-07T03:45:09.646Z,2.47
2023-05-07T03:47:12.254Z,3.70
2023-05-07T03:49:14.336Z,3.25
2023-05-07T03:51:16.501Z,3.28
2023-05-07T03:53:18.403Z,5.13
2023-05-07T03:55:20.035Z,3.20
2023-05-07T03:57:26.583Z,2.47
2023-05-07T03:59:28.473Z,3.20
2023-05-07T04:01:34.020Z,2.53
2023-05-07T04:03:38.169Z,2.33
2023-05-07T04:05:40.102Z,2.30
2023-05-07T04:07:41.874Z,2.78
2023-05-07T04:09:43.996Z,2.58
2023-05-07T04:11:46.414Z,3.13
2023-05-07T04:13:48.331Z,2.40
2023-05-07T04:15:53.633Z,2.45
2023-05-07T04:17:55.772Z,3.10
2023-05-07T04:19:58.914Z,3.30
2023-05-07T04:22:08.799Z,2.72
2023-05-07T04:24:10.505Z,3.45
2023-05-07T04:26:12.122Z,4.90
2023-05-07T04:28:17.080Z,2.60
2023-05-07T04:30:21.242Z,3.55
2023-05-07T04:32:26.102Z,3.13
2023-05-07T04:34:32.675Z,2.55
2023-05-07T04:36:36.488Z,2.45
2023-05-07T04:38:43.198Z,2.58
2023-05-07T04:40:46.170Z,5.35
2023-05-07T04:42:51.252Z,3.10
2023-05-07T04:44:54.535Z,3.35
2023-05-07T04:46:56.894Z,2.17
2023-05-07T04:48:58.603Z,3.03
2023-05-07T04:51:00.623Z,2.97
2023-05-07T04:53:02.419Z,2.53
2023-05-07T04:55:04.276Z,2.40
2023-05-07T04:57:10.379Z,3.85
2023-05-07T04:59:12.380Z,3.17
2023-05-07T05:01:14.320Z,4.03
2023-05-07T05:03:16.957Z,2.63
2023-05-07T05:05:18.702Z,2.40
2023-05-07T05:07:23.014Z,2.67
2023-05-07T05:09:24.510Z,3.90
2023-05-07T05:11:28.584Z,2.83
2023-05-07T05:13:31.327Z,3.20
2023-05-07T05:15:34.173Z,2.83
2023-05-07T05:17:37.612Z,3.35
2023-05-07T05:19:41.864Z,3.05
2023-05-07T05:21:43.667Z,3.08
2023-05-07T05:23:46.388Z,3.20
2023-05-07T05:25:57.414Z,3.15
2023-05-07T05:28:01.278Z,3.10
2023-05-07T05:30:04.895Z,2.83
2023-05-07T05:32:07.157Z,3.80
2023-05-07T05:34:08.731Z,3.97
2023-05-07T05:36:13.046Z,2.78
2023-05-07T05:38:15.233Z,3.45
2023-05-07T05:40:17.068Z,3.22
2023-05-07T05:42:18.788Z,4.53
2023-05-07T05:44:20.751Z,5.88
2023-05-07T05:46:22.935Z,3.33
2023-05-07T05:48:26.684Z,4.18
2023-05-07T05:50:28.331Z,3.67
2023-05-07T05:52:30.194Z,3.20
2023-05-07T05:54:32.349Z,3.40
2023-05-07T05:56:34.252Z,3.95
2023-05-07T05:58:36.041Z,3.42
2023-05-07T06:00:41.064Z,4.10
2023-05-07T06:02:43.989Z,6.18
2023-05-07T06:04:46.310Z,4.85
2023-05-07T06:06:52.228Z,4.68
2023-05-07T06:08:53.871Z,4.70
2023-05-07T06:11:02.519Z,4.70
2023-05-07T06:13:05.994Z,5.03
2023-05-07T06:15:09.424Z,6.03
2023-05-07T06:17:11.093Z,5.25
2023-05-07T06:19:12.708Z,6.00
2023-05-07T06:21:15.900Z,5.95
2023-05-07T06:23:18.042Z,6.25
2023-05-07T06:25:20.077Z,5.80
2023-05-07T06:27:21.538Z,6.78
2023-05-07T06:29:23.704Z,6.57
2023-05-07T06:31:32.085Z,6.25
2023-05-07T06:33:37.759Z,6.00
2023-05-07T06:35:39.729Z,5.80
2023-05-07T06:37:47.762Z,6.85
2023-05-07T06:39:54.152Z,6.07
2023-05-07T06:41:55.694Z,5.95
2023-05-07T06:44:02.719Z,5.28
2023-05-07T06:46:16.667Z,4.88
2023-05-07T06:48:18.176Z,4.60
2023-05-07T06:50:35.283Z,5.10
2023-05-07T06:52:36.923Z,5.22
2023-05-07T06:54:40.428Z,4.65
2023-05-07T06:56:43.074Z,5.28
2023-05-07T06:58:47.605Z,4.75
2023-05-07T07:00:50.101Z,4.88
2023-05-07T07:02:51.751Z,4.65
2023-05-07T07:04:56.396Z,4.90
2023-05-07T07:06:58.036Z,5.50
2023-05-07T07:09:00.796Z,4.93
2023-05-07T07:11:02.556Z,5.13
2023-05-07T07:13:05.172Z,5.93
2023-05-07T07:15:07.756Z,4.70
2023-05-07T07:17:09.384Z,4.30
2023-05-07T07:19:10.936Z,4.70
2023-05-07T07:21:12.866Z,4.45
2023-05-07T07:23:15.204Z,4.28
2023-05-07T07:25:17.023Z,4.72
2023-05-07T07:27:19.130Z,4.70
2023-05-07T07:29:20.743Z,4.40
2023-05-07T07:31:23.183Z,4.53
2023-05-07T07:33:28.420Z,4.70
2023-05-07T07:35:30.950Z,5.18
2023-05-07T07:37:35.423Z,4.22
2023-05-07T07:39:38.750Z,4.93
2023-05-07T07:41:42.457Z,5.15
2023-05-07T07:43:44.330Z,4.25
2023-05-07T07:45:46.914Z,4.47
2023-05-07T07:47:48.662Z,4.05
2023-05-07T07:49:50.551Z,4.03
2023-05-07T07:51:52.162Z,4.07
2023-05-07T07:53:54.045Z,3.67
2023-05-07T07:55:59.518Z,4.00
2023-05-07T07:58:04.826Z,4.25
2023-05-07T08:00:08.370Z,4.25
2023-05-07T08:02:19.011Z,4.22
2023-05-07T08:04:21.865Z,4.10
2023-05-07T08:06:24.214Z,3.90
2023-05-07T08:08:29.811Z,4.72
2023-05-07T08:10:35.491Z,4.50
2023-05-07T08:12:44.162Z,4.28
2023-05-07T08:14:54.991Z,4.30
2023-05-07T08:16:57.524Z,4.57
2023-05-07T08:18:59.350Z,4.45
2023-05-07T08:21:02.188Z,4.30
2023-05-07T08:23:04.295Z,5.05
2023-05-07T08:25:06.217Z,4.20
2023-05-07T08:27:08.497Z,5.03
2023-05-07T08:29:10.113Z,4.70
2023-05-07T08:31:12.022Z,6.22
2023-05-07T08:33:17.255Z,4.53
2023-05-07T08:35:19.352Z,4.32
2023-05-07T08:37:21.238Z,4.20
2023-05-07T08:39:23.040Z,4.03
2023-05-07T08:41:27.242Z,3.80
2023-05-07T08:43:30.080Z,3.90
2023-05-07T08:45:34.494Z,4.15
2023-05-07T08:47:45.744Z,3.67
2023-05-07T08:49:49.748Z,4.20
2023-05-07T08:51:52.491Z,4.50
2023-05-07T08:53:55.327Z,5.90
2023-05-07T08:56:03.399Z,6.70
2023-05-07T08:58:05.756Z,6.90
2023-05-07T09:00:13.577Z,5.95
2023-05-07T09:02:19.413Z,6.03
2023-05-07T09:04:24.135Z,5.30
2023-05-07T09:06:26.073Z,5.43
2023-05-07T09:08:28.489Z,5.45
2023-05-07T09:10:38.438Z,4.80
2023-05-07T09:12:41.825Z,4.15
2023-05-07T09:14:46.807Z,5.28
2023-05-07T09:16:48.658Z,3.80
2023-05-07T09:18:53.387Z,4.45
2023-05-07T09:20:56.169Z,3.97
2023-05-07T09:22:57.966Z,3.50
2023-05-07T09:25:00.974Z,4.82
2023-05-07T09:27:05.585Z,3.63
2023-05-07T09:29:08.551Z,3.33
2023-05-07T09:33:37.372Z,3.53
2023-05-07T09:35:40.748Z,3.53
2023-05-07T09:37:46.881Z,3.40
2023-05-07T09:39:50.714Z,3.72
2023-05-07T09:41:56.082Z,3.03
2023-05-07T09:44:08.146Z,3.80
2023-05-07T09:46:25.003Z,3.50
2023-05-07T09:48:36.497Z,3.28
2023-05-07T09:50:49.789Z,3.25
2023-05-07T09:52:54.887Z,4.15
2023-05-07T09:55:00.072Z,3.42
2023-05-07T09:57:04.122Z,3.30
2023-05-07T09:59:08.040Z,3.60
2023-05-07T10:01:12.137Z,3.30
2023-05-07T10:03:19.792Z,3.28
2023-05-07T10:05:29.897Z,3.60
2023-05-07T10:07:33.909Z,2.88
2023-05-07T10:09:43.250Z,4.35
2023-05-07T10:11:51.356Z,3.15
2023-05-07T10:13:54.462Z,3.53
2023-05-07T10:15:56.477Z,3.83
2023-05-07T10:18:00.820Z,3.28
2023-05-07T10:20:05.088Z,3.17
2023-05-07T10:22:08.856Z,3.55
2023-05-07T10:24:35.009Z,3.38
2023-05-07T10:26:48.270Z,3.47
2023-05-07T10:29:25.351Z,3.58
2023-05-07T10:31:48.917Z,3.20
2023-05-07T10:33:52.261Z,2.88
2023-05-07T10:36:01.695Z,2.90
2023-05-07T10:38:06.018Z,2.90
2023-05-07T10:40:11.591Z,3.22
2023-05-07T10:42:14.864Z,3.17
2023-05-07T10:44:29.709Z,2.97
2023-05-07T10:46:36.508Z,2.70
2023-05-07T10:49:09.000Z,3.33
2023-05-07T10:51:35.320Z,2.70
2023-05-07T10:54:12.262Z,2.97
2023-05-07T10:56:22.107Z,2.78
2023-05-07T10:58:34.222Z,2.90
2023-05-07T11:00:51.349Z,2.47
2023-05-07T11:03:03.134Z,2.70
2023-05-07T11:05:22.072Z,2.78
2023-05-07T11:07:32.039Z,3.22
2023-05-07T11:09:53.874Z,2.83
2023-05-07T11:12:11.321Z,2.67
2023-05-07T11:14:55.852Z,2.67
2023-05-07T11:17:04.888Z,2.53
2023-05-07T11:19:17.186Z,2.33
2023-05-07T11:21:39.926Z,2.65
2023-05-07T11:23:59.735Z,2.67
2023-05-07T11:26:19.140Z,2.90
2023-05-07T11:28:21.437Z,2.95
2023-05-07T11:30:32.598Z,4.95
2023-05-07T11:32:34.895Z,3.10
2023-05-07T11:34:37.157Z,2.55
2023-05-07T11:36:44.782Z,2.90
2023-05-07T11:38:48.965Z,2.78
2023-05-07T11:40:51.984Z,2.70
2023-05-07T11:42:53.589Z,3.20
2023-05-07T11:44:55.394Z,2.50
2023-05-07T11:46:58.430Z,3.67
2023-05-07T11:49:01.738Z,2.72
2023-05-07T11:51:05.813Z,2.30
2023-05-07T11:53:13.867Z,3.90
2023-05-07T11:55:19.718Z,2.83
2023-05-07T11:57:22.051Z,2.30
2023-05-07T11:59:23.504Z,3.03
2023-05-07T12:01:25.005Z,2.00
2023-05-07T12:03:31.918Z,2.85
2023-05-07T12:05:38.392Z,2.00
2023-05-07T12:07:40.122Z,2.20
2023-05-07T12:09:42.800Z,2.22
2023-05-07T12:11:47.174Z,2.03
2023-05-07T12:13:49.025Z,2.78
2023-05-07T12:15:55.995Z,2.15
2023-05-07T12:17:57.762Z,2.58
2023-05-07T12:19:59.809Z,4.55
2023-05-07T12:22:03.911Z,2.25
2023-05-07T12:24:06.529Z,2.25
2023-05-07T12:26:09.481Z,2.45
2023-05-07T12:28:17.250Z,2.63
2023-05-07T12:30:18.907Z,2.15
2023-05-07T12:32:22.129Z,2.33
2023-05-07T12:34:26.496Z,2.70
2023-05-07T12:36:39.588Z,2.15
2023-05-07T12:38:41.811Z,1.90
2023-05-07T12:40:46.438Z,2.20
2023-05-07T12:42:47.928Z,2.25
2023-05-07T12:44:49.529Z,1.98
2023-05-07T12:46:52.536Z,2.30
2023-05-07T12:48:54.749Z,2.50
2023-05-07T12:50:57.749Z,2.35
2023-05-07T12:52:59.610Z,2.67
2023-05-07T12:55:08.472Z,2.35
2023-05-07T12:57:11.332Z,2.38
2023-05-07T12:59:15.990Z,2.72
2023-05-07T13:01:20.201Z,2.30
2023-05-07T13:03:32.005Z,2.70
2023-05-07T13:05:33.883Z,5.32
2023-05-07T13:07:35.949Z,2.50
2023-05-07T13:09:38.201Z,2.28
2023-05-07T13:11:39.718Z,2.30
2023-05-07T13:13:48.256Z,2.50
2023-05-07T13:15:49.973Z,2.20
2023-05-07T13:17:51.612Z,2.33
2023-05-07T13:19:53.695Z,1.98
2023-05-07T13:21:55.475Z,2.20
2023-05-07T13:23:56.987Z,2.13
2023-05-07T13:25:58.504Z,2.20
2023-05-07T13:28:10.083Z,2.10
2023-05-07T13:30:12.771Z,2.33
2023-05-07T13:32:14.510Z,2.15
2023-05-07T13:34:16.240Z,2.60
2023-05-07T13:36:17.739Z,2.20
2023-05-07T13:38:19.300Z,3.67
2023-05-07T13:40:21.318Z,7.72
2023-05-07T13:42:22.851Z,8.05
2023-05-07T13:44:24.351Z,7.20
2023-05-07T13:46:26.034Z,6.03
2023-05-07T13:48:27.927Z,4.82
2023-05-07T13:50:30.823Z,4.60
2023-05-07T13:52:35.650Z,3.63
2023-05-07T13:54:37.118Z,3.05
2023-05-07T13:56:38.695Z,3.03
2023-05-07T13:58:51.802Z,2.60
2023-05-07T14:00:58.245Z,3.05
2023-05-07T14:03:00.722Z,2.40
2023-05-07T14:05:02.766Z,2.50
2023-05-07T14:07:04.255Z,2.92
2023-05-07T14:09:05.953Z,2.92
2023-05-07T14:11:07.755Z,3.35
2023-05-07T14:13:11.792Z,3.47
2023-05-07T14:15:13.700Z,2.97
2023-05-07T14:17:15.247Z,3.20
2023-05-07T14:19:16.817Z,3.20
2023-05-07T14:21:18.379Z,2.97
2023-05-07T14:23:22.569Z,2.78
2023-05-07T14:25:24.165Z,3.97
2023-05-07T14:27:27.220Z,2.70
2023-05-07T14:29:29.560Z,2.60
2023-05-07T14:31:31.063Z,3.03
2023-05-07T14:33:34.898Z,2.45
2023-05-07T14:35:36.618Z,2.85
2023-05-07T14:37:38.288Z,3.65
2023-05-07T14:39:40.622Z,4.35
2023-05-07T14:41:42.058Z,4.13
2023-05-07T14:43:43.617Z,3.97
2023-05-07T14:45:45.768Z,2.30
2023-05-07T14:47:47.391Z,2.78
2023-05-07T14:49:49.473Z,2.60
2023-05-07T14:51:51.154Z,2.45
2023-05-07T14:53:55.691Z,2.33
2023-05-07T14:55:57.402Z,2.40
2023-05-07T14:57:59.180Z,2.38
2023-05-07T15:00:00.966Z,2.55
2023-05-07T15:02:05.449Z,3.03
2023-05-07T15:04:08.524Z,2.15
2023-05-07T15:06:10.088Z,2.88
2023-05-07T15:08:11.778Z,3.08
2023-05-07T15:10:13.573Z,3.35
2023-05-07T15:12:15.438Z,2.70
2023-05-07T15:14:17.187Z,2.50
2023-05-07T15:16:19.490Z,2.40
2023-05-07T15:18:22.853Z,2.63
2023-05-07T15:20:24.752Z,3.05
2023-05-07T15:22:26.472Z,3.20
2023-05-07T15:24:28.085Z,2.80
2023-05-07T15:26:30.297Z,2.45
2023-05-07T15:28:32.541Z,2.70
2023-05-07T15:30:35.321Z,2.55
2023-05-07T15:32:37.642Z,2.35
2023-05-07T15:34:39.434Z,2.65
2023-05-07T15:36:41.164Z,2.72
2023-05-07T15:38:43.290Z,3.65
2023-05-07T15:40:45.446Z,2.72
2023-05-07T15:42:47.412Z,2.75
2023-05-07T15:44:49.318Z,3.50
2023-05-07T15:46:50.932Z,2.58
2023-05-07T15:48:54.045Z,2.85
2023-05-07T15:50:56.085Z,3.65
2023-05-07T15:52:58.305Z,2.67
2023-05-07T15:55:03.528Z,2.63
2023-05-07T15:57:07.004Z,2.80
2023-05-07T15:59:10.086Z,3.45
2023-05-07T16:01:11.569Z,3.40
2023-05-07T16:03:13.475Z,3.17
2023-05-07T16:05:15.851Z,3.28
2023-05-07T16:07:17.527Z,3.33
2023-05-07T16:09:19.313Z,3.53
2023-05-07T16:11:21.444Z,3.90
2023-05-07T16:13:24.983Z,3.30
2023-05-07T16:15:26.696Z,3.60
2023-05-07T16:17:28.334Z,4.43
2023-05-07T16:19:30.196Z,4.20
2023-05-07T16:21:32.777Z,3.97
2023-05-07T16:23:34.436Z,4.22
2023-05-07T16:25:36.492Z,3.72
2023-05-07T16:27:38.102Z,3.58
2023-05-07T16:29:40.058Z,3.70
2023-05-07T16:31:45.827Z,3.40
2023-05-07T16:33:47.446Z,3.10
2023-05-07T16:35:53.031Z,3.22
2023-05-07T16:37:54.728Z,3.40
2023-05-07T16:40:00.766Z,3.35
2023-05-07T16:42:02.914Z,3.00
2023-05-07T16:44:04.708Z,3.03
2023-05-07T16:46:06.172Z,3.13
2023-05-07T16:48:08.446Z,3.10
2023-05-07T16:50:10.578Z,5.80
2023-05-07T16:52:12.046Z,3.35
2023-05-07T16:54:13.783Z,2.83
2023-05-07T16:56:15.498Z,2.90
2023-05-07T16:58:16.954Z,3.30
2023-05-07T17:00:18.512Z,3.30
2023-05-07T17:02:20.178Z,3.40
2023-05-07T17:04:21.957Z,3.90
2023-05-07T17:06:23.422Z,3.90
2023-05-07T17:08:25.320Z,4.38
2023-05-07T17:10:27.090Z,3.67
2023-05-07T17:12:29.299Z,3.45
2023-05-07T17:14:31.028Z,3.50
2023-05-07T17:16:32.654Z,3.42
2023-05-07T17:18:36.691Z,4.82
2023-05-07T17:20:39.936Z,4.00
2023-05-07T17:22:41.475Z,3.83
2023-05-07T17:24:43.016Z,3.72
2023-05-07T17:26:44.842Z,4.15
2023-05-07T17:28:46.571Z,3.85
2023-05-07T17:30:49.280Z,3.80
2023-05-07T17:32:50.902Z,3.70
2023-05-07T17:34:53.106Z,4.18
2023-05-07T17:36:54.696Z,5.38
2023-05-07T17:38:56.105Z,4.07
2023-05-07T17:41:01.883Z,4.30
2023-05-07T17:43:03.509Z,3.95
2023-05-07T17:45:05.674Z,4.07
2023-05-07T17:47:07.491Z,4.05
2023-05-07T17:49:09.134Z,4.13
2023-05-07T17:51:10.737Z,4.95
2023-05-07T17:53:13.126Z,4.50
2023-05-07T17:55:14.923Z,4.10
2023-05-07T17:57:16.561Z,4.10
2023-05-07T17:59:18.197Z,4.05
2023-05-07T18:01:20.837Z,4.22
2023-05-07T18:03:24.506Z,4.32
2023-05-07T18:05:26.866Z,3.97
2023-05-07T18:07:28.512Z,4.70
2023-05-07T18:09:30.401Z,4.13
2023-05-07T18:11:33.743Z,6.00
2023-05-07T18:13:35.484Z,7.93
2023-05-07T18:15:36.995Z,9.30
2023-05-07T18:17:38.528Z,7.85
2023-05-07T18:19:40.186Z,6.55
2023-05-07T18:21:41.686Z,7.28
2023-05-07T18:23:43.238Z,5.30
2023-05-07T18:25:47.980Z,4.78
2023-05-07T18:27:49.523Z,4.47
2023-05-07T18:29:52.010Z,3.72
2023-05-07T18:31:53.583Z,4.18
2023-05-07T18:33:56.077Z,3.92
2023-05-07T18:36:00.831Z,3.55
2023-05-07T18:38:02.641Z,3.47
2023-05-07T18:40:05.848Z,3.85
2023-05-07T18:42:08.827Z,3.65
2023-05-07T18:44:10.493Z,4.20
2023-05-07T18:46:12.755Z,3.92
2023-05-07T18:48:16.829Z,3.88
2023-05-07T18:50:21.529Z,3.65
2023-05-07T18:52:25.148Z,3.90
2023-05-07T18:54:27.069Z,4.03
2023-05-07T18:56:28.693Z,3.95
2023-05-07T18:58:30.514Z,3.60
2023-05-07T19:00:32.241Z,3.53
2023-05-07T19:02:33.779Z,3.47
2023-05-07T19:04:36.251Z,4.25
2023-05-07T19:06:37.934Z,4.70
2023-05-07T19:08:39.640Z,5.85
2023-05-07T19:10:41.389Z,7.68
2023-05-07T19:12:43.202Z,7.43
2023-05-07T19:14:47.750Z,7.97
2023-05-07T19:16:49.409Z,6.03
2023-05-07T19:18:51.678Z,5.57
2023-05-07T19:20:55.184Z,5.30
2023-05-07T19:22:57.197Z,4.88
2023-05-07T19:24:58.848Z,4.55
2023-05-07T19:27:04.506Z,4.43
2023-05-07T19:29:17.234Z,3.95
2023-05-07T19:31:21.323Z,3.95
2023-05-07T19:33:23.586Z,3.45
2023-05-07T19:35:25.426Z,3.35
2023-05-07T19:37:27.894Z,3.10
2023-05-07T19:39:29.448Z,3.15
2023-05-07T19:41:30.972Z,3.63
2023-05-07T19:43:41.169Z,3.00
2023-05-07T19:45:44.906Z,3.72
2023-05-07T19:47:48.793Z,3.22
2023-05-07T19:49:50.432Z,3.03
2023-05-07T19:51:52.320Z,3.90
2023-05-07T19:53:53.742Z,3.20
2023-05-07T19:56:06.037Z,3.60
2023-05-07T19:58:08.001Z,3.25
2023-05-07T20:00:13.693Z,3.58
2023-05-07T20:02:16.549Z,4.57
2023-05-07T20:04:18.079Z,4.63
2023-05-07T20:06:19.856Z,3.28
2023-05-07T20:08:22.093Z,4.40
2023-05-07T20:10:32.878Z,3.17
2023-05-07T20:12:37.322Z,3.10
2023-05-07T20:14:39.033Z,3.10
2023-05-07T20:16:40.729Z,3.03
2023-05-07T20:18:42.335Z,3.75
2023-05-07T20:20:45.066Z,3.08
2023-05-07T20:22:46.590Z,2.75
2023-05-07T20:24:48.334Z,3.10
2023-05-07T20:26:49.949Z,2.92
2023-05-07T20:28:51.426Z,2.55
2023-05-07T20:30:53.049Z,3.05
2023-05-07T20:32:54.694Z,2.78
2023-05-07T20:34:56.344Z,2.67
2023-05-07T20:36:57.871Z,2.70
2023-05-07T20:38:59.587Z,2.80
2023-05-07T20:41:14.323Z,2.15
2023-05-07T20:43:15.742Z,2.72
2023-05-07T20:45:20.870Z,2.58
2023-05-07T20:47:22.568Z,2.67
2023-05-07T20:49:24.259Z,2.55
2023-05-07T20:51:27.194Z,2.90
2023-05-07T20:53:29.962Z,3.20
2023-05-07T20:55:31.869Z,2.97
2023-05-07T20:57:33.382Z,3.25
2023-05-07T20:59:34.890Z,2.97
2023-05-07T21:01:36.404Z,3.53
2023-05-07T21:03:38.141Z,3.08
2023-05-07T21:05:39.778Z,2.97
2023-05-07T21:07:41.372Z,3.65
2023-05-07T21:09:43.185Z,5.28
2023-05-07T21:11:44.778Z,5.55
2023-05-07T21:13:46.361Z,4.25
2023-05-07T21:15:48.059Z,4.85
2023-05-07T21:17:49.693Z,3.83
2023-05-07T21:19:51.837Z,3.63
2023-05-07T21:21:57.704Z,3.50
2023-05-07T21:23:59.511Z,5.55
2023-05-07T21:26:01.319Z,3.25
2023-05-07T21:28:05.757Z,4.82
2023-05-07T21:30:08.069Z,3.25
2023-05-07T21:32:09.684Z,3.50
2023-05-07T21:34:11.171Z,3.42
2023-05-07T21:36:13.072Z,3.10
2023-05-07T21:38:14.522Z,3.47
2023-05-07T21:40:16.485Z,3.13
2023-05-07T21:42:18.033Z,2.95
2023-05-07T21:44:21.735Z,2.78
2023-05-07T21:46:23.314Z,3.58
2023-05-07T21:48:26.714Z,3.13
2023-05-07T21:50:28.242Z,3.28
2023-05-07T21:52:30.036Z,3.22
2023-05-07T21:54:31.679Z,2.90
2023-05-07T21:56:33.185Z,3.00
2023-05-07T21:58:34.805Z,3.03
2023-05-07T22:00:36.311Z,3.75
2023-05-07T22:02:38.258Z,3.30
2023-05-07T22:04:39.988Z,4.50
2023-05-07T22:06:41.704Z,3.63
2023-05-07T22:08:43.364Z,3.25
2023-05-07T22:10:44.969Z,3.53
2023-05-07T22:12:46.515Z,3.00
2023-05-07T22:14:48.355Z,3.22
2023-05-07T22:16:49.963Z,3.08
2023-05-07T22:18:54.087Z,2.90
2023-05-07T22:20:56.122Z,3.45
2023-05-07T22:22:57.643Z,3.60
2023-05-07T22:24:59.204Z,3.60
2023-05-07T22:27:03.168Z,4.13
2023-05-07T22:29:04.706Z,3.88
2023-05-07T22:31:06.729Z,3.00
2023-05-07T22:33:10.776Z,3.75
2023-05-07T22:35:12.453Z,3.92
2023-05-07T22:37:13.940Z,4.10
2023-05-07T22:39:15.687Z,4.07
2023-05-07T22:41:17.154Z,3.40
2023-05-07T22:43:21.532Z,3.58
2023-05-07T22:45:23.094Z,4.72
2023-05-07T22:47:24.652Z,4.05
2023-05-07T22:49:26.300Z,4.45
2023-05-07T22:51:28.340Z,3.60
2023-05-07T22:53:29.952Z,3.25
2023-05-07T22:55:31.628Z,4.03
2023-05-07T22:57:33.277Z,4.60
2023-05-07T22:59:36.862Z,4.32
2023-05-07T23:01:38.829Z,3.65
2023-05-07T23:03:40.990Z,3.38
2023-05-07T23:05:43.210Z,3.55
2023-05-07T23:07:44.648Z,3.72
2023-05-07T23:09:46.153Z,3.40
2023-05-07T23:11:47.744Z,3.63
2023-05-07T23:13:49.215Z,3.63
2023-05-07T23:15:51.656Z,4.40
2023-05-07T23:17:53.243Z,3.58
2023-05-07T23:19:54.895Z,3.60
2023-05-07T23:21:56.482Z,4.85
2023-05-07T23:23:57.925Z,3.53
2023-05-07T23:26:00.003Z,4.45
2023-05-07T23:28:03.210Z,3.70
2023-05-07T23:30:05.429Z,4.78
2023-05-07T23:32:07.298Z,3.65
2023-05-07T23:34:08.869Z,3.08
2023-05-07T23:36:10.370Z,4.78
2023-05-07T23:38:12.004Z,3.72
2023-05-07T23:40:13.802Z,3.55
2023-05-07T23:42:16.169Z,3.60
2023-05-07T23:44:17.678Z,3.33
2023-05-07T23:46:19.770Z,4.07
2023-05-07T23:48:21.288Z,3.53
2023-05-07T23:50:22.938Z,3.47
2023-05-07T23:52:24.502Z,3.53
2023-05-07T23:54:26.069Z,4.82
2023-05-07T23:56:27.777Z,3.72
2023-05-07T23:58:31.914Z,4.78
